createdAt,value
2022-09-14T00:00:13.301Z,14.41
2022-09-14T00:02:42.874Z,14.22
2022-09-14T00:05:12.590Z,14.21
2022-09-14T00:07:42.387Z,14.15
2022-09-14T00:10:12.157Z,14.34
2022-09-14T00:12:42.127Z,14.34
2022-09-14T00:15:11.993Z,14.20
2022-09-14T00:17:41.780Z,14.16
2022-09-14T00:20:11.892Z,14.27
2022-09-14T00:22:42.062Z,14.52
2022-09-14T00:25:11.807Z,14.42
2022-09-14T00:27:41.591Z,14.12
2022-09-14T00:30:12.065Z,14.07
2022-09-14T00:32:42.113Z,13.97
2022-09-14T00:35:11.696Z,13.97
2022-09-14T00:37:41.498Z,14.07
2022-09-14T00:40:12.494Z,14.07
2022-09-14T00:42:41.321Z,14.04
2022-09-14T00:45:16.872Z,14.09
2022-09-14T00:47:50.008Z,14.12
2022-09-14T00:50:20.259Z,14.19
2022-09-14T00:52:51.564Z,14.36
2022-09-14T00:55:24.151Z,14.36
2022-09-14T00:57:55.338Z,14.49
2022-09-14T01:00:27.171Z,14.52
2022-09-14T01:02:57.494Z,14.50
2022-09-14T01:05:44.777Z,14.63
2022-09-14T01:08:17.592Z,14.53
2022-09-14T01:10:59.589Z,14.69
2022-09-14T01:13:44.448Z,14.75
2022-09-14T01:16:46.178Z,14.92
2022-09-14T01:19:19.108Z,15.04
2022-09-14T01:21:51.250Z,15.02
2022-09-14T01:24:40.445Z,14.94
2022-09-14T01:27:20.715Z,14.93
2022-09-14T01:29:56.592Z,14.89
2022-09-14T01:32:41.244Z,15.03
2022-09-14T01:35:22.894Z,15.14
2022-09-14T01:37:55.754Z,15.24
2022-09-14T01:40:46.945Z,15.04
2022-09-14T01:43:23.234Z,14.87
2022-09-14T01:45:59.273Z,14.76
2022-09-14T01:48:35.675Z,14.76
2022-09-14T01:51:09.719Z,14.81
2022-09-14T01:53:42.739Z,14.90
2022-09-14T01:56:21.126Z,15.16
2022-09-14T01:58:59.585Z,15.09
2022-09-14T02:01:41.147Z,15.08
2022-09-14T02:04:14.116Z,14.97
2022-09-14T02:06:47.239Z,14.91
2022-09-14T02:09:19.879Z,15.01
2022-09-14T02:11:50.115Z,14.91
2022-09-14T02:14:19.758Z,14.82
2022-09-14T02:16:49.608Z,14.90
2022-09-14T02:19:23.538Z,14.82
2022-09-14T02:21:51.166Z,14.81
2022-09-14T02:24:21.384Z,14.74
2022-09-14T02:26:53.515Z,14.87
2022-09-14T02:29:23.203Z,14.89
2022-09-14T02:31:56.317Z,14.76
2022-09-14T02:34:44.080Z,14.76
2022-09-14T02:37:16.613Z,14.76
2022-09-14T02:39:55.461Z,14.71
2022-09-14T02:42:37.289Z,14.59
2022-09-14T02:45:30.936Z,14.55
2022-09-14T02:48:09.857Z,14.81
2022-09-14T02:50:51.208Z,14.71
2022-09-14T02:53:40.069Z,14.57
2022-09-14T02:56:12.225Z,14.52
2022-09-14T02:58:44.986Z,14.44
2022-09-14T03:01:20.955Z,14.34
2022-09-14T03:03:51.531Z,14.41
2022-09-14T03:06:21.373Z,14.58
2022-09-14T03:08:51.228Z,14.55
2022-09-14T03:11:21.098Z,14.39
2022-09-14T03:13:50.993Z,14.27
2022-09-14T03:16:21.230Z,14.21
2022-09-14T03:18:51.403Z,14.16
2022-09-14T03:21:21.010Z,14.09
2022-09-14T03:23:54.767Z,14.02
2022-09-14T03:26:25.791Z,14.11
2022-09-14T03:28:56.242Z,14.17
2022-09-14T03:31:27.543Z,14.01
2022-09-14T03:33:59.476Z,13.97
2022-09-14T03:36:31.707Z,13.90
2022-09-14T03:39:02.180Z,13.86
2022-09-14T03:41:31.757Z,13.78
2022-09-14T03:44:01.619Z,13.77
2022-09-14T03:46:31.508Z,13.73
2022-09-14T03:49:01.587Z,13.71
2022-09-14T03:51:31.387Z,13.71
2022-09-14T03:54:02.599Z,13.64
2022-09-14T03:56:32.501Z,13.53
2022-09-14T03:59:03.222Z,13.53
2022-09-14T04:01:34.765Z,13.54
2022-09-14T04:04:05.540Z,13.52
2022-09-14T04:06:36.549Z,13.43
2022-09-14T04:09:26.091Z,13.53
2022-09-14T04:11:55.896Z,13.51
2022-09-14T04:14:26.134Z,13.46
2022-09-14T04:16:56.893Z,13.48
2022-09-14T04:19:26.769Z,13.45
2022-09-14T04:21:56.564Z,13.43
2022-09-14T04:24:30.231Z,13.39
2022-09-14T04:26:57.887Z,13.36
2022-09-14T04:29:29.409Z,13.34
2022-09-14T04:31:59.208Z,13.29
2022-09-14T04:34:29.109Z,13.27
2022-09-14T04:36:58.902Z,13.28
2022-09-14T04:39:28.799Z,13.29
2022-09-14T04:41:58.873Z,13.29
2022-09-14T04:44:28.830Z,13.31
2022-09-14T04:46:58.743Z,13.25
2022-09-14T04:49:28.871Z,13.20
2022-09-14T04:51:58.752Z,13.16
2022-09-14T04:54:28.604Z,13.17
2022-09-14T04:56:58.718Z,13.17
2022-09-14T04:59:28.520Z,13.15
2022-09-14T05:01:58.400Z,13.16
2022-09-14T05:04:28.257Z,13.18
2022-09-14T05:06:58.066Z,13.18
2022-09-14T05:09:28.037Z,13.22
2022-09-14T05:11:57.704Z,13.29
2022-09-14T05:14:27.560Z,13.34
2022-09-14T05:16:59.005Z,13.37
2022-09-14T05:19:28.566Z,13.42
2022-09-14T05:21:58.378Z,13.44
2022-09-14T05:24:28.334Z,13.54
2022-09-14T05:27:00.978Z,13.61
2022-09-14T05:29:30.042Z,13.69
2022-09-14T05:32:00.409Z,13.70
2022-09-14T05:34:30.073Z,13.80
2022-09-14T05:36:59.885Z,13.87
2022-09-14T05:39:29.672Z,13.92
2022-09-14T05:41:59.639Z,13.94
2022-09-14T05:44:29.731Z,13.98
2022-09-14T05:46:59.529Z,14.11
2022-09-14T05:49:29.986Z,14.11
2022-09-14T05:51:59.532Z,14.17
2022-09-14T05:54:29.468Z,14.28
2022-09-14T05:56:59.273Z,14.28
2022-09-14T05:59:30.698Z,14.32
2022-09-14T06:02:00.639Z,14.44
2022-09-14T06:04:30.468Z,14.55
2022-09-14T06:07:17.924Z,14.62
2022-09-14T06:09:33.192Z,14.68
2022-09-14T06:12:01.831Z,14.72
2022-09-14T06:14:31.637Z,14.78
2022-09-14T06:17:03.443Z,14.79
2022-09-14T06:19:33.726Z,14.87
2022-09-14T06:22:03.550Z,14.95
2022-09-14T06:24:33.414Z,15.01
2022-09-14T06:27:03.575Z,15.04
2022-09-14T06:29:33.659Z,15.19
2022-09-14T06:32:03.700Z,15.43
2022-09-14T06:34:34.581Z,15.48
2022-09-14T06:37:04.092Z,15.54
2022-09-14T06:39:34.259Z,15.81
2022-09-14T06:42:03.846Z,15.81
2022-09-14T06:44:34.872Z,15.96
2022-09-14T06:47:03.666Z,15.92
2022-09-14T06:49:33.248Z,15.84
2022-09-14T06:52:03.188Z,15.84
2022-09-14T06:54:32.971Z,16.07
2022-09-14T06:57:03.545Z,16.16
2022-09-14T06:59:33.037Z,16.17
2022-09-14T07:02:02.856Z,16.03
2022-09-14T07:04:32.655Z,16.12
2022-09-14T07:07:02.517Z,16.24
2022-09-14T07:09:32.328Z,16.36
2022-09-14T07:12:02.642Z,16.38
2022-09-14T07:14:32.599Z,16.47
2022-09-14T07:17:02.378Z,16.62
2022-09-14T07:19:32.478Z,16.78
2022-09-14T07:22:02.489Z,16.80
2022-09-14T07:24:32.331Z,16.81
2022-09-14T07:27:03.193Z,16.93
2022-09-14T07:29:33.336Z,16.95
2022-09-14T07:32:03.366Z,17.02
2022-09-14T07:34:33.207Z,17.09
2022-09-14T07:37:04.725Z,17.02
2022-09-14T07:39:34.545Z,17.12
2022-09-14T07:42:04.446Z,17.20
2022-09-14T07:44:34.309Z,17.34
2022-09-14T07:47:04.203Z,17.39
2022-09-14T07:49:34.010Z,17.29
2022-09-14T07:52:04.343Z,17.38
2022-09-14T07:54:34.563Z,17.40
2022-09-14T07:57:04.736Z,17.53
2022-09-14T07:59:36.439Z,17.68
2022-09-14T08:02:11.987Z,17.66
2022-09-14T08:04:42.428Z,17.78
2022-09-14T08:07:11.308Z,17.98
2022-09-14T08:09:40.400Z,17.91
2022-09-14T08:12:09.606Z,18.03
2022-09-14T08:14:39.039Z,17.92
2022-09-14T08:17:08.006Z,17.85
2022-09-14T08:19:37.878Z,17.82
2022-09-14T08:22:06.751Z,18.01
2022-09-14T08:24:35.855Z,18.10
2022-09-14T08:27:06.310Z,18.10
2022-09-14T08:29:35.695Z,18.06
2022-09-14T08:32:04.957Z,18.03
2022-09-14T08:34:35.550Z,18.20
2022-09-14T08:37:04.370Z,18.02
2022-09-14T08:39:33.547Z,18.23
2022-09-14T08:42:03.607Z,18.29
2022-09-14T08:44:38.772Z,18.13
2022-09-14T08:47:19.437Z,18.32
2022-09-14T08:49:57.605Z,18.25
2022-09-14T08:52:35.512Z,18.21
2022-09-14T08:55:25.570Z,18.23
2022-09-14T08:58:06.308Z,18.33
2022-09-14T09:00:44.529Z,18.52
2022-09-14T09:03:28.677Z,18.39
2022-09-14T09:06:16.410Z,18.48
2022-09-14T09:08:54.410Z,18.37
2022-09-14T09:11:26.287Z,18.02
2022-09-14T09:13:56.744Z,18.50
2022-09-14T09:16:28.823Z,18.50
2022-09-14T09:19:06.662Z,18.54
2022-09-14T09:21:38.791Z,18.68
2022-09-14T09:24:28.769Z,18.83
2022-09-14T09:26:59.906Z,18.88
2022-09-14T09:29:29.205Z,18.83
2022-09-14T09:32:16.297Z,18.79
2022-09-14T09:35:05.249Z,18.84
2022-09-14T09:37:53.127Z,18.84
2022-09-14T09:40:25.822Z,18.57
2022-09-14T09:43:13.435Z,18.58
2022-09-14T09:45:52.210Z,18.81
2022-09-14T09:48:28.136Z,18.87
2022-09-14T09:51:28.120Z,18.93
2022-09-14T09:54:10.516Z,18.92
2022-09-14T09:56:43.604Z,18.85
2022-09-14T09:59:37.957Z,18.85
2022-09-14T10:02:32.634Z,19.10
2022-09-14T10:05:13.763Z,18.84
2022-09-14T10:07:56.172Z,18.83
2022-09-14T10:10:43.038Z,18.77
2022-09-14T10:13:28.641Z,18.90
2022-09-14T10:16:10.590Z,18.69
2022-09-14T10:18:46.878Z,18.57
2022-09-14T10:21:17.704Z,18.43
2022-09-14T10:23:49.564Z,18.39
2022-09-14T10:26:22.222Z,18.49
2022-09-14T10:28:52.769Z,18.40
2022-09-14T10:31:28.178Z,18.44
2022-09-14T10:33:58.936Z,18.37
2022-09-14T10:36:32.447Z,18.36
2022-09-14T10:39:26.141Z,17.96
2022-09-14T10:42:26.958Z,18.39
2022-09-14T10:45:14.882Z,18.40
2022-09-14T10:47:50.484Z,18.67
2022-09-14T10:50:44.324Z,18.80
2022-09-14T10:53:50.462Z,18.70
2022-09-14T10:56:31.474Z,18.87
2022-09-14T10:59:04.331Z,18.82
2022-09-14T11:01:52.113Z,18.71
2022-09-14T11:04:45.496Z,18.58
2022-09-14T11:07:20.873Z,18.53
2022-09-14T11:10:02.571Z,18.75
2022-09-14T11:12:41.335Z,18.47
2022-09-14T11:15:26.171Z,18.85
2022-09-14T11:18:17.195Z,18.93
2022-09-14T11:21:01.813Z,18.81
2022-09-14T11:23:43.460Z,19.17
2022-09-14T11:26:16.319Z,19.35
2022-09-14T11:28:57.856Z,19.19
2022-09-14T11:31:39.338Z,19.29
2022-09-14T11:34:11.891Z,19.34
2022-09-14T11:36:44.724Z,19.44
2022-09-14T11:39:20.368Z,19.56
2022-09-14T11:42:02.541Z,19.50
2022-09-14T11:44:37.872Z,19.50
2022-09-14T11:47:10.722Z,19.75
2022-09-14T11:49:57.635Z,19.87
2022-09-14T11:52:33.026Z,20.03
2022-09-14T11:55:03.856Z,19.90
2022-09-14T11:57:35.191Z,19.90
2022-09-14T12:00:11.496Z,20.09
2022-09-14T12:02:44.181Z,20.25
2022-09-14T12:05:17.019Z,20.25
2022-09-14T12:07:53.962Z,20.56
2022-09-14T12:10:23.792Z,20.54
2022-09-14T12:13:11.313Z,20.57
2022-09-14T12:15:42.092Z,20.13
2022-09-14T12:18:13.409Z,20.36
2022-09-14T12:20:51.100Z,20.42
2022-09-14T12:23:45.177Z,20.38
2022-09-14T12:26:23.752Z,20.13
2022-09-14T12:28:58.715Z,20.18
2022-09-14T12:31:36.346Z,19.57
2022-09-14T12:34:24.730Z,20.00
2022-09-14T12:36:59.066Z,20.13
2022-09-14T12:39:35.011Z,20.28
2022-09-14T12:42:27.289Z,19.84
2022-09-14T12:44:57.236Z,20.38
2022-09-14T12:47:30.065Z,20.34
2022-09-14T12:50:23.146Z,20.03
2022-09-14T12:53:04.816Z,20.21
2022-09-14T12:55:47.699Z,20.20
2022-09-14T12:58:32.465Z,19.82
2022-09-14T13:01:08.348Z,19.69
2022-09-14T13:03:52.853Z,19.53
2022-09-14T13:06:23.995Z,19.66
2022-09-14T13:08:56.537Z,19.79
2022-09-14T13:11:32.050Z,20.02
2022-09-14T13:14:02.984Z,19.94
2022-09-14T13:16:47.897Z,20.19
2022-09-14T13:19:24.100Z,20.39
2022-09-14T13:21:57.200Z,20.23
2022-09-14T13:24:32.072Z,20.47
2022-09-14T13:27:03.513Z,20.46
2022-09-14T13:29:33.171Z,20.53
2022-09-14T13:32:04.274Z,20.55
2022-09-14T13:34:38.328Z,19.85
2022-09-14T13:37:08.169Z,20.04
2022-09-14T13:39:41.901Z,19.99
2022-09-14T13:42:12.042Z,20.05
2022-09-14T13:44:46.364Z,19.90
2022-09-14T13:47:18.789Z,19.72
2022-09-14T13:49:51.438Z,19.56
2022-09-14T13:52:38.964Z,19.66
2022-09-14T13:55:25.651Z,19.66
2022-09-14T13:58:16.583Z,19.84
2022-09-14T14:00:49.799Z,19.87
2022-09-14T14:03:44.549Z,20.23
2022-09-14T14:06:38.575Z,20.23
2022-09-14T14:09:12.001Z,20.32
2022-09-14T14:11:45.527Z,19.93
2022-09-14T14:14:28.852Z,20.13
2022-09-14T14:17:13.126Z,20.18
2022-09-14T14:19:43.774Z,20.25
2022-09-14T14:22:16.446Z,20.28
2022-09-14T14:27:35.283Z,20.13
2022-09-14T14:30:09.475Z,20.30
2022-09-14T14:32:39.300Z,20.02
2022-09-14T14:35:18.321Z,20.02
2022-09-14T14:37:48.859Z,19.98
2022-09-14T14:40:20.595Z,19.64
2022-09-14T14:42:51.389Z,19.49
2022-09-14T14:45:25.966Z,19.57
2022-09-14T14:47:57.001Z,19.40
2022-09-14T14:50:33.692Z,19.40
2022-09-14T14:53:03.799Z,19.51
2022-09-14T14:55:36.674Z,19.48
2022-09-14T14:58:09.988Z,19.28
2022-09-14T15:00:39.831Z,19.29
2022-09-14T15:03:09.825Z,19.11
2022-09-14T15:05:47.184Z,18.96
2022-09-14T15:08:20.153Z,18.77
2022-09-14T15:10:51.478Z,18.71
2022-09-14T15:13:20.987Z,18.64
2022-09-14T15:15:50.809Z,18.93
2022-09-14T15:18:20.579Z,19.24
2022-09-14T15:20:50.378Z,19.21
2022-09-14T15:23:22.704Z,19.12
2022-09-14T15:25:54.310Z,19.17
2022-09-14T15:28:24.211Z,19.14
2022-09-14T15:30:56.393Z,19.09
2022-09-14T15:33:26.212Z,19.08
2022-09-14T15:35:57.553Z,19.18
2022-09-14T15:38:27.570Z,19.03
2022-09-14T15:40:57.393Z,18.89
2022-09-14T15:43:27.186Z,18.89
2022-09-14T15:45:58.511Z,19.01
2022-09-14T15:48:28.282Z,18.54
2022-09-14T15:51:00.274Z,18.54
2022-09-14T15:53:30.093Z,18.57
2022-09-14T15:55:59.914Z,18.67
2022-09-14T15:58:31.436Z,18.66
2022-09-14T16:01:02.270Z,18.68
2022-09-14T16:03:32.084Z,18.65
2022-09-14T16:06:02.124Z,18.62
2022-09-14T16:08:33.239Z,18.45
2022-09-14T16:11:04.757Z,18.45
2022-09-14T16:13:35.781Z,18.53
2022-09-14T16:16:10.924Z,18.47
2022-09-14T16:18:41.731Z,18.31
2022-09-14T16:21:24.140Z,18.14
2022-09-14T16:23:56.413Z,18.03
2022-09-14T16:26:30.581Z,17.93
2022-09-14T16:29:01.966Z,17.89
2022-09-14T16:31:32.709Z,17.97
2022-09-14T16:34:06.081Z,17.95
2022-09-14T16:36:38.972Z,18.06
2022-09-14T16:39:16.198Z,18.03
2022-09-14T16:41:47.042Z,17.75
2022-09-14T16:44:19.956Z,17.75
2022-09-14T16:46:50.644Z,17.82
2022-09-14T16:49:24.980Z,17.84
2022-09-14T16:51:52.891Z,17.78
2022-09-14T16:54:24.368Z,17.73
2022-09-14T16:56:59.240Z,17.61
2022-09-14T16:59:29.090Z,17.64
2022-09-14T17:01:59.168Z,17.61
2022-09-14T17:04:29.378Z,17.69
2022-09-14T17:06:59.090Z,17.68
2022-09-14T17:09:32.930Z,17.59
2022-09-14T17:12:03.153Z,17.54
2022-09-14T17:14:34.634Z,17.54
2022-09-14T17:17:04.902Z,17.38
2022-09-14T17:19:35.108Z,17.42
2022-09-14T17:22:06.634Z,17.37
2022-09-14T17:24:36.660Z,17.32
2022-09-14T17:27:06.927Z,17.36
2022-09-14T17:29:39.517Z,17.30
2022-09-14T17:32:14.628Z,17.30
2022-09-14T17:34:44.907Z,17.28
2022-09-14T17:37:14.871Z,17.26
2022-09-14T17:39:45.150Z,17.23
2022-09-14T17:42:14.963Z,17.25
2022-09-14T17:44:45.108Z,17.28
2022-09-14T17:47:17.267Z,17.27
2022-09-14T17:49:49.920Z,17.27
2022-09-14T17:52:20.083Z,17.21
2022-09-14T17:54:53.804Z,17.20
2022-09-14T17:57:23.854Z,17.15
2022-09-14T17:59:54.077Z,17.12
2022-09-14T18:02:24.337Z,17.16
2022-09-14T18:04:55.417Z,17.16
2022-09-14T18:07:25.542Z,17.18
2022-09-14T18:09:58.678Z,17.16
2022-09-14T18:12:28.756Z,17.04
2022-09-14T18:14:59.242Z,16.96
2022-09-14T18:17:32.587Z,16.96
2022-09-14T18:20:04.696Z,16.91
2022-09-14T18:22:34.985Z,16.91
2022-09-14T18:25:10.924Z,16.92
2022-09-14T18:27:41.126Z,16.93
2022-09-14T18:30:11.652Z,16.98
2022-09-14T18:32:42.647Z,16.95
2022-09-14T18:35:14.586Z,16.98
2022-09-14T18:37:44.884Z,16.94
2022-09-14T18:40:20.008Z,16.94
2022-09-14T18:42:50.271Z,16.94
2022-09-14T18:45:21.370Z,16.93
2022-09-14T18:48:01.641Z,16.90
2022-09-14T18:50:31.697Z,16.88
2022-09-14T18:53:02.247Z,16.81
2022-09-14T18:55:34.403Z,16.83
2022-09-14T18:58:04.712Z,16.78
2022-09-14T19:00:37.853Z,16.79
2022-09-14T19:03:09.086Z,16.69
2022-09-14T19:05:42.883Z,16.67
2022-09-14T19:08:14.335Z,16.64
2022-09-14T19:10:44.346Z,16.68
2022-09-14T19:13:15.447Z,16.69
2022-09-14T19:15:46.557Z,16.68
2022-09-14T19:18:16.637Z,16.61
2022-09-14T19:21:05.755Z,16.55
2022-09-14T19:23:21.851Z,16.52
2022-09-14T19:25:52.712Z,16.45
2022-09-14T19:28:22.314Z,16.39
2022-09-14T19:30:53.235Z,16.34
2022-09-14T19:33:24.355Z,16.34
2022-09-14T19:35:54.237Z,16.48
2022-09-14T19:38:24.070Z,16.52
2022-09-14T19:40:54.402Z,16.53
2022-09-14T19:43:23.928Z,16.51
2022-09-14T19:45:53.977Z,16.47
2022-09-14T19:48:26.051Z,16.49
2022-09-14T19:51:02.300Z,16.47
2022-09-14T19:53:35.567Z,16.46
2022-09-14T19:56:10.063Z,16.56
2022-09-14T19:58:43.794Z,16.45
2022-09-14T20:01:14.125Z,16.35
2022-09-14T20:03:49.408Z,16.38
2022-09-14T20:06:31.961Z,16.38
2022-09-14T20:09:04.958Z,16.40
2022-09-14T20:11:36.305Z,16.41
2022-09-14T20:14:08.915Z,16.39
2022-09-14T20:16:41.391Z,16.43
2022-09-14T20:19:13.911Z,16.43
2022-09-14T20:21:48.467Z,16.44
2022-09-14T20:24:26.434Z,16.47
2022-09-14T20:27:00.854Z,16.47
2022-09-14T20:29:35.423Z,16.42
2022-09-14T20:32:06.776Z,16.43
2022-09-14T20:34:36.601Z,16.45
2022-09-14T20:37:09.710Z,16.45
2022-09-14T20:39:41.974Z,16.45
2022-09-14T20:42:13.893Z,16.43
2022-09-14T20:44:44.142Z,16.43
2022-09-14T20:47:14.679Z,16.41
2022-09-14T20:49:44.929Z,16.39
2022-09-14T20:52:14.585Z,16.35
2022-09-14T20:54:45.578Z,16.34
2022-09-14T20:57:15.390Z,16.33
2022-09-14T20:59:45.109Z,16.34
2022-09-14T21:02:15.087Z,16.29
2022-09-14T21:04:55.407Z,16.29
2022-09-14T21:07:24.359Z,16.36
2022-09-14T21:09:57.082Z,16.31
2022-09-14T21:12:27.442Z,16.31
2022-09-14T21:14:57.336Z,16.28
2022-09-14T21:17:29.078Z,16.19
2022-09-14T21:19:59.040Z,16.16
2022-09-14T21:22:45.902Z,16.16
2022-09-14T21:25:26.688Z,16.25
2022-09-14T21:27:56.596Z,16.27
2022-09-14T21:30:38.990Z,16.24
2022-09-14T21:33:08.876Z,16.27
2022-09-14T21:35:38.621Z,16.26
2022-09-14T21:38:08.866Z,16.27
2022-09-14T21:40:39.041Z,16.28
2022-09-14T21:43:08.788Z,16.29
2022-09-14T21:45:41.639Z,16.29
2022-09-14T21:48:11.420Z,16.26
2022-09-14T21:50:45.333Z,16.26
2022-09-14T21:53:13.898Z,16.24
2022-09-14T21:55:43.729Z,16.23
2022-09-14T21:58:13.344Z,16.22
2022-09-14T22:00:43.174Z,16.19
2022-09-14T22:03:12.727Z,16.22
2022-09-14T22:05:42.549Z,16.20
2022-09-14T22:08:12.836Z,16.18
2022-09-14T22:10:42.395Z,16.17
2022-09-14T22:13:12.212Z,16.17
2022-09-14T22:15:42.577Z,16.19
2022-09-14T22:18:12.209Z,16.20
2022-09-14T22:20:43.204Z,16.14
2022-09-14T22:23:14.885Z,16.11
2022-09-14T22:25:44.706Z,16.14
2022-09-14T22:28:16.235Z,16.07
2022-09-14T22:30:54.214Z,16.06
2022-09-14T22:33:26.916Z,16.00
2022-09-14T22:36:00.349Z,16.01
2022-09-14T22:38:32.181Z,15.99
2022-09-14T22:41:05.400Z,15.97
2022-09-14T22:43:35.889Z,15.95
2022-09-14T22:46:07.694Z,15.94
2022-09-14T22:48:38.689Z,15.95
2022-09-14T22:51:10.833Z,15.96
2022-09-14T22:53:40.719Z,15.95
2022-09-14T22:56:19.108Z,15.96
2022-09-14T22:58:51.820Z,16.02
2022-09-14T23:01:24.585Z,15.96
2022-09-14T23:04:03.504Z,15.95
2022-09-14T23:06:36.637Z,15.98
2022-09-14T23:09:08.553Z,15.95
2022-09-14T23:11:38.884Z,15.91
2022-09-14T23:14:08.643Z,16.05
2022-09-14T23:16:38.606Z,15.92
2022-09-14T23:19:09.262Z,15.92
2022-09-14T23:21:39.354Z,15.93
2022-09-14T23:24:08.985Z,15.93
2022-09-14T23:26:38.922Z,15.94
2022-09-14T23:29:11.605Z,16.11
2022-09-14T23:31:41.474Z,15.94
2022-09-14T23:34:11.557Z,15.93
2022-09-14T23:36:41.968Z,15.92
2022-09-14T23:39:11.894Z,15.88
2022-09-14T23:41:41.699Z,15.86
2022-09-14T23:44:12.842Z,15.87
2022-09-14T23:46:42.644Z,15.86
2022-09-14T23:49:13.653Z,15.81
2022-09-14T23:51:43.832Z,15.80
2022-09-14T23:54:13.462Z,15.83
2022-09-14T23:56:43.905Z,15.85
